Time;durP1;ratioP1;P1;durP2;ratioP2;P2;SDS_P1;SDS_P2;PMS_P1;PMS_P2;Temp;Humidity;BMP_temperature;BMP_pressure;BME280_temperature;BME280_humidity;BME280_pressure;Samples;Min_cycle;Max_cycle;Signal;HPM_P1;HPM_P2
2022/02/05 00:01:45;;;;;;;13.50;2.63;;;;;;;2.76;100.00;100696.25;10176308;28;20088;-67
2022/02/05 00:06:45;;;;;;;14.68;2.67;;;;;;;2.84;100.00;100695.75;10169056;28;20424;-67
2022/02/05 00:20:06;;;;;;;8.93;1.30;;;;;;;2.73;100.00;100692.22;10194684;28;20081;-67
2022/02/05 00:43:00;;;;;;;9.43;1.85;;;;;;;2.73;100.00;100709.22;10157943;28;20141;-67
2022/02/05 00:47:59;;;;;;;6.85;1.52;;;;;;;2.74;100.00;100721.66;10177571;28;20424;-67
2022/02/05 00:53:03;;;;;;;8.63;1.25;;;;;;;2.78;100.00;100731.91;10173952;28;20046;-66
2022/02/05 00:58:05;;;;;;;5.68;1.27;;;;;;;2.77;100.00;100746.50;10165141;28;20500;-66
2022/02/05 01:03:03;;;;;;;7.17;1.13;;;;;;;2.80;100.00;100751.38;10157054;28;20093;-66
2022/02/05 01:08:00;;;;;;;8.90;1.50;;;;;;;2.85;100.00;100756.78;10182758;28;20125;-66
2022/02/05 01:13:04;;;;;;;6.38;2.10;;;;;;;2.78;100.00;100761.63;10172261;28;20496;-66
2022/02/05 01:18:04;;;;;;;8.68;1.20;;;;;;;2.74;100.00;100769.44;10170869;28;20056;-66
2022/02/05 01:23:05;;;;;;;6.38;1.40;;;;;;;2.66;100.00;100762.66;10162182;28;20528;-66
2022/02/05 01:28:10;;;;;;;2.67;0.73;;;;;;;2.53;100.00;100773.94;10153436;28;20100;-66
2022/02/05 01:48:59;;;;;;;5.55;0.63;;;;;;;2.69;100.00;100805.34;10148178;28;20069;-67
2022/02/05 02:14:52;;;;;;;11.70;1.60;;;;;;;2.76;100.00;100815.88;10184816;28;20057;-68
2022/02/05 02:30:01;;;;;;;5.10;0.80;;;;;;;2.78;100.00;100823.72;10157639;28;20050;-67
2022/02/05 02:35:07;;;;;;;9.63;1.08;;;;;;;2.70;100.00;100812.34;10153363;28;20050;-67
2022/02/05 02:40:22;;;;;;;6.45;1.15;;;;;;;2.67;100.00;100812.88;10135500;28;20098;-68
2022/02/05 02:45:18;;;;;;;7.32;1.13;;;;;;;2.56;100.00;100813.91;10141711;28;20050;-67
2022/02/05 03:00:35;;;;;;;6.95;1.23;;;;;;;2.61;100.00;100846.31;10127537;28;20074;-67
2022/02/05 03:05:32;;;;;;;8.25;2.33;;;;;;;2.60;100.00;100838.47;10159353;28;20087;-67
2022/02/05 03:10:28;;;;;;;11.65;2.40;;;;;;;2.59;100.00;100848.47;10179707;28;20105;-67
2022/02/05 03:15:25;;;;;;;9.00;1.67;;;;;;;2.59;100.00;100864.66;10169808;28;20391;-67
2022/02/05 03:20:22;;;;;;;9.43;2.00;;;;;;;2.57;100.00;100861.41;10121614;28;20105;-67
2022/02/05 03:25:18;;;;;;;4.70;0.95;;;;;;;2.46;100.00;100881.28;10159566;28;20050;-67
2022/02/05 03:30:15;;;;;;;7.63;1.50;;;;;;;2.55;100.00;100898.63;10174807;28;20108;-67
2022/02/05 03:35:11;;;;;;;7.40;1.25;;;;;;;2.34;100.00;100921.16;10149721;28;20077;-67
2022/02/05 03:40:08;;;;;;;6.30;0.95;;;;;;;2.10;100.00;100961.97;10190519;28;20042;-68
2022/02/05 03:45:08;;;;;;;6.18;0.70;;;;;;;1.76;100.00;100986.41;10155472;28;20731;-67
2022/02/05 03:50:05;;;;;;;3.70;1.10;;;;;;;1.72;100.00;100990.69;10162617;28;20145;-68
2022/02/05 03:55:02;;;;;;;4.43;0.80;;;;;;;1.45;100.00;100986.03;10152196;28;20493;-68
2022/02/05 04:00:02;;;;;;;2.65;0.55;;;;;;;1.53;100.00;100959.72;10117744;28;20088;-67
2022/02/05 04:04:59;;;;;;;4.30;0.88;;;;;;;1.51;100.00;100957.31;10121209;28;20117;-67
2022/02/05 04:09:58;;;;;;;0.98;0.32;;;;;;;1.40;100.00;100948.25;10152016;28;20050;-66
2022/02/05 04:20:10;;;;;;;2.30;0.50;;;;;;;1.45;100.00;100956.41;10159171;28;20042;-67
2022/02/05 04:25:06;;;;;;;5.75;0.80;;;;;;;1.38;100.00;100960.38;10157074;28;20484;-67
2022/02/05 04:30:04;;;;;;;6.35;1.17;;;;;;;1.34;100.00;100981.59;10159199;28;20096;-67
2022/02/05 04:35:01;;;;;;;4.07;0.95;;;;;;;1.34;100.00;100988.88;10158556;28;20074;-67
2022/02/05 04:40:11;;;;;;;4.90;0.90;;;;;;;1.27;100.00;100989.84;10159187;28;20050;-66
2022/02/05 05:00:51;;;;;;;4.18;0.80;;;;;;;1.33;100.00;100996.13;10118284;28;20154;-67
2022/02/05 05:11:42;;;;;;;5.32;1.10;;;;;;;1.31;100.00;101021.69;10082299;28;20056;-67
2022/02/05 05:21:50;;;;;;;9.45;1.40;;;;;;;1.42;100.00;101035.06;10156841;28;20050;-67
2022/02/05 05:26:48;;;;;;;4.47;0.77;;;;;;;1.44;100.00;101048.28;10175351;28;20070;-67
2022/02/05 05:31:44;;;;;;;8.02;1.27;;;;;;;1.53;100.00;101051.34;10158103;28;20107;-67
2022/02/05 05:36:41;;;;;;;9.40;1.25;;;;;;;1.54;100.00;101048.41;10180530;28;20042;-67
2022/02/05 05:41:38;;;;;;;5.60;0.82;;;;;;;1.52;100.00;101068.59;10195951;28;20112;-67
2022/02/05 05:46:42;;;;;;;10.65;1.13;;;;;;;1.52;100.00;101082.06;10164168;28;20077;-67
2022/02/05 05:51:39;;;;;;;12.82;0.75;;;;;;;1.57;100.00;101074.84;10159841;28;20062;-66
2022/02/05 05:56:37;;;;;;;7.55;1.05;;;;;;;1.60;100.00;101082.47;10177728;28;20041;-66
2022/02/05 06:01:36;;;;;;;9.30;1.60;;;;;;;1.62;100.00;101095.69;10195793;28;20042;-66
2022/02/05 06:06:32;;;;;;;8.23;1.20;;;;;;;1.59;100.00;101112.34;10163281;28;20177;-67
2022/02/05 06:11:29;;;;;;;9.70;1.52;;;;;;;1.56;100.00;101115.56;10167017;28;20041;-66
2022/02/05 06:16:31;;;;;;;4.72;0.90;;;;;;;1.51;100.00;101120.84;10165812;28;20101;-67
2022/02/05 06:21:27;;;;;;;8.65;1.20;;;;;;;1.51;100.00;101128.94;10153551;28;20702;-67
2022/02/05 06:26:23;;;;;;;8.50;2.05;;;;;;;1.45;100.00;101147.72;10178102;28;20173;-67
2022/02/05 06:31:20;;;;;;;10.02;1.40;;;;;;;1.46;100.00;101170.09;10192992;28;20045;-67
2022/02/05 06:36:16;;;;;;;12.77;1.65;;;;;;;1.37;100.00;101161.63;10166384;28;20552;-66
2022/02/05 06:41:13;;;;;;;8.90;1.38;;;;;;;1.42;100.00;101159.00;10194368;28;20070;-67
2022/02/05 06:46:09;;;;;;;8.35;1.25;;;;;;;1.37;100.00;101167.03;10178767;28;20087;-67
2022/02/05 06:51:09;;;;;;;11.55;1.30;;;;;;;1.38;100.00;101165.94;10153484;28;20088;-66
2022/02/05 06:56:05;;;;;;;12.80;1.70;;;;;;;1.39;100.00;101174.84;10159351;28;20074;-66
2022/02/05 07:01:02;;;;;;;16.38;1.77;;;;;;;1.42;100.00;101180.56;10177649;28;20502;-67
2022/02/05 07:05:59;;;;;;;11.35;2.40;;;;;;;1.42;100.00;101180.56;10168679;28;20477;-67
2022/02/05 07:10:55;;;;;;;11.52;1.70;;;;;;;1.45;100.00;101185.47;10188384;28;20518;-67
2022/02/05 07:16:02;;;;;;;17.23;2.95;;;;;;;1.54;100.00;101195.84;10169217;28;20149;-66
2022/02/05 07:21:07;;;;;;;6.55;1.00;;;;;;;1.56;100.00;101201.81;10178289;28;20129;-67
2022/02/05 07:31:20;;;;;;;11.68;2.42;;;;;;;1.61;100.00;101215.34;10153141;28;20081;-67
2022/02/05 07:36:17;;;;;;;10.07;1.40;;;;;;;1.64;100.00;101214.84;10148884;28;20074;-66
2022/02/05 07:41:14;;;;;;;10.80;1.40;;;;;;;1.72;100.00;101233.31;10149192;28;20152;-67
2022/02/05 07:46:13;;;;;;;11.98;1.48;;;;;;;1.79;100.00;101212.41;10151097;28;20088;-67
2022/02/05 07:51:09;;;;;;;12.57;2.85;;;;;;;1.77;100.00;101230.69;10154418;28;20050;-67
2022/02/05 07:56:06;;;;;;;12.75;1.85;;;;;;;1.74;100.00;101228.50;10151640;28;20154;-67
2022/02/05 08:01:04;;;;;;;13.77;1.90;;;;;;;1.75;100.00;101240.09;10152955;28;20246;-67
2022/02/05 08:06:03;;;;;;;12.25;1.80;;;;;;;1.76;100.00;101247.13;10154851;28;20500;-74
2022/02/05 08:11:07;;;;;;;9.57;1.50;;;;;;;1.79;100.00;101255.53;10155866;28;20580;-74
2022/02/05 08:16:23;;;;;;;13.90;1.83;;;;;;;1.82;100.00;101257.75;10161260;28;20109;-74
2022/02/05 08:21:20;;;;;;;11.65;2.10;;;;;;;1.86;100.00;101272.38;10170483;28;20065;-74
2022/02/05 08:26:17;;;;;;;18.30;3.20;;;;;;;1.97;100.00;101277.91;10157817;28;20178;-74
2022/02/05 08:31:14;;;;;;;14.15;1.50;;;;;;;1.98;100.00;101279.56;10162689;28;20066;-75
2022/02/05 08:36:11;;;;;;;17.73;2.67;;;;;;;2.07;100.00;101284.28;10172427;28;20077;-75
2022/02/05 08:41:08;;;;;;;12.32;2.13;;;;;;;2.11;100.00;101284.59;10159993;28;20137;-75
2022/02/05 08:46:04;;;;;;;28.13;2.25;;;;;;;2.21;100.00;101292.84;10181121;28;20046;-75
2022/02/05 08:51:01;;;;;;;20.27;3.00;;;;;;;2.31;100.00;101292.16;10166743;28;20042;-74
2022/02/05 08:55:57;;;;;;;15.57;2.75;;;;;;;2.40;100.00;101287.97;10163872;28;20038;-70
2022/02/05 09:01:14;;;;;;;21.75;3.13;;;;;;;2.65;100.00;101294.78;10166450;28;20362;-70
2022/02/05 09:06:11;;;;;;;16.65;2.38;;;;;;;2.83;100.00;101307.16;10162844;28;20066;-70
2022/02/05 09:11:16;;;;;;;25.92;3.30;;;;;;;2.84;100.00;101319.59;10149690;28;20038;-69
2022/02/05 09:16:15;;;;;;;13.88;2.22;;;;;;;2.73;100.00;101308.66;10137321;28;20046;-70
2022/02/05 09:21:11;;;;;;;20.27;3.63;;;;;;;2.78;100.00;101317.91;10155664;28;20506;-69
2022/02/05 09:26:08;;;;;;;11.93;2.30;;;;;;;2.62;100.00;101324.97;10155627;28;20047;-70
2022/02/05 09:36:06;;;;;;;19.17;3.35;;;;;;;2.70;100.00;101317.25;10155798;28;20142;-70
2022/02/05 09:41:02;;;;;;;23.55;2.90;;;;;;;2.79;100.00;101317.66;10158570;28;20042;-69
2022/02/05 09:45:59;;;;;;;22.65;2.88;;;;;;;2.88;100.00;101342.34;10174698;28;20107;-70
2022/02/05 09:51:04;;;;;;;18.65;4.00;;;;;;;2.95;100.00;101338.38;10154102;28;20042;-70
2022/02/05 09:56:00;;;;;;;19.13;2.58;;;;;;;3.00;100.00;101326.81;10161267;28;20100;-71
2022/02/05 10:00:59;;;;;;;12.95;2.20;;;;;;;3.09;100.00;101338.00;10156016;28;20133;-70
2022/02/05 10:06:29;;;;;;;27.50;4.95;;;;;;;3.31;100.00;101343.38;10164863;28;20519;-70
2022/02/05 10:11:30;;;;;;;15.80;2.10;;;;;;;3.47;100.00;101328.94;10113841;28;20619;-70
2022/02/05 10:16:29;;;;;;;19.58;2.15;;;;;;;3.72;100.00;101324.88;10139237;28;20042;-71
2022/02/05 10:21:29;;;;;;;13.82;1.95;;;;;;;3.83;100.00;101332.00;10155408;28;20445;-70
2022/02/05 10:26:39;;;;;;;14.00;2.28;;;;;;;3.98;100.00;101334.81;10155681;28;20046;-70
2022/02/05 10:31:54;;;;;;;13.60;1.80;;;;;;;4.11;100.00;101321.94;10159133;28;20117;-70
2022/02/05 10:37:21;;;;;;;19.33;2.40;;;;;;;4.13;100.00;101344.13;10149163;28;20122;-71
2022/02/05 10:47:57;;;;;;;12.27;2.15;;;;;;;4.44;100.00;101326.22;10148134;28;20489;-71
2022/02/05 10:53:02;;;;;;;15.88;1.92;;;;;;;4.61;100.00;101326.03;10152064;28;20054;-72
2022/02/05 11:08:13;;;;;;;16.40;2.05;;;;;;;4.62;100.00;101328.47;10148093;28;20925;-71
2022/02/05 11:13:25;;;;;;;21.40;3.55;;;;;;;4.53;100.00;101334.66;10147047;28;20046;-71
2022/02/05 11:23:37;;;;;;;22.63;3.13;;;;;;;4.96;100.00;101321.84;10154834;28;20464;-71
2022/02/05 11:28:45;;;;;;;18.73;1.95;;;;;;;4.82;100.00;101338.59;10150699;28;20089;-71
2022/02/05 11:33:42;;;;;;;20.52;3.03;;;;;;;4.69;100.00;101333.66;10163254;28;20149;-71
2022/02/05 11:38:42;;;;;;;18.10;2.92;;;;;;;4.54;100.00;101323.53;10156725;28;20085;-71
2022/02/05 11:43:40;;;;;;;25.92;2.72;;;;;;;4.91;100.00;101325.34;10173949;28;20077;-71
2022/02/05 11:48:41;;;;;;;12.82;1.63;;;;;;;4.93;100.00;101306.13;10150274;28;20066;-71
2022/02/05 11:53:55;;;;;;;17.15;2.47;;;;;;;5.06;100.00;101316.47;10149763;28;20034;-70
2022/02/05 11:58:58;;;;;;;15.68;3.67;;;;;;;5.13;100.00;101295.34;10150694;28;20038;-70
2022/02/05 12:04:17;;;;;;;14.70;2.28;;;;;;;5.20;100.00;101298.63;10150902;28;20141;-71
2022/02/05 12:09:38;;;;;;;22.58;2.40;;;;;;;5.72;100.00;101288.66;10159252;28;20046;-69
2022/02/05 12:14:35;;;;;;;13.70;1.98;;;;;;;5.68;100.00;101293.78;10164625;28;20477;-70
2022/02/05 12:19:33;;;;;;;15.60;2.13;;;;;;;5.48;100.00;101280.25;10142550;28;20042;-70
2022/02/05 12:25:11;;;;;;;14.70;2.35;;;;;;;5.38;100.00;101285.63;10137144;28;20056;-70
2022/02/05 12:30:27;;;;;;;17.08;2.03;;;;;;;5.21;100.00;101300.25;10138773;28;20059;-70
2022/02/05 12:35:23;;;;;;;16.08;1.85;;;;;;;5.21;100.00;101281.25;10148972;28;20070;-70
2022/02/05 12:40:20;;;;;;;16.00;2.55;;;;;;;5.14;100.00;101277.19;10149386;28;20109;-71
2022/02/05 12:45:19;;;;;;;17.73;2.08;;;;;;;4.96;100.00;101306.41;10162299;28;20045;-71
2022/02/05 12:50:16;;;;;;;8.90;1.35;;;;;;;4.66;100.00;101292.72;10152559;28;20066;-70
2022/02/05 12:55:23;;;;;;;15.73;2.10;;;;;;;4.81;100.00;101284.69;10151040;28;20038;-71
2022/02/05 13:00:20;;;;;;;16.05;2.30;;;;;;;5.17;100.00;101268.50;10144506;28;20058;-71
2022/02/05 13:05:16;;;;;;;13.30;2.65;;;;;;;5.74;100.00;101269.41;10144461;28;20046;-70
2022/02/05 13:10:14;;;;;;;13.38;2.53;;;;;;;5.76;100.00;101242.81;10150360;28;20054;-71
2022/02/05 13:15:27;;;;;;;13.60;2.40;;;;;;;5.60;100.00;101245.50;10154426;28;20066;-71
2022/02/05 13:25:43;;;;;;;;;;;;;;;5.24;100.00;101253.63;10164000;28;20046;-71
2022/02/05 13:36:11;;;;;;;19.77;2.58;;;;;;;5.53;100.00;101247.69;10188384;28;20048;-71
2022/02/05 13:41:09;;;;;;;21.20;2.50;;;;;;;5.94;100.00;101245.00;10151847;28;20108;-72
2022/02/05 13:46:14;;;;;;;18.15;2.00;;;;;;;5.75;100.00;101222.97;10173627;28;20639;-71
2022/02/05 13:51:11;;;;;;;13.32;2.75;;;;;;;5.58;100.00;101236.84;10195711;28;20484;-71
2022/02/05 13:56:08;;;;;;;10.75;1.77;;;;;;;5.47;100.00;101224.34;10159475;28;20057;-71
2022/02/05 14:01:04;;;;;;;19.30;2.55;;;;;;;5.56;100.00;101228.16;10150615;28;20042;-71
2022/02/05 14:06:13;;;;;;;10.98;1.60;;;;;;;5.50;100.00;101234.69;10155999;28;20058;-70
2022/02/05 14:11:11;;;;;;;13.07;2.25;;;;;;;5.38;100.00;101232.19;10164086;28;20128;-71
2022/02/05 14:16:09;;;;;;;14.18;2.10;;;;;;;5.32;100.00;101249.56;10153770;28;20496;-71
2022/02/05 14:21:05;;;;;;;14.32;3.33;;;;;;;5.28;100.00;101232.22;10153475;28;20074;-70
2022/02/05 14:26:13;;;;;;;9.05;2.00;;;;;;;5.27;100.00;101233.31;10148250;28;20498;-70
2022/02/05 14:41:40;;;;;;;12.82;2.97;;;;;;;5.11;100.00;101231.66;10169486;28;20084;-70
2022/02/05 14:46:37;;;;;;;12.20;2.30;;;;;;;5.12;100.00;101234.06;10152005;28;20101;-70
2022/02/05 14:51:33;;;;;;;14.82;2.95;;;;;;;5.12;100.00;101244.91;10170731;28;20125;-70
2022/02/05 14:56:30;;;;;;;9.68;2.10;;;;;;;5.12;100.00;101225.94;10179965;28;20145;-70
2022/02/05 15:01:26;;;;;;;13.75;3.08;;;;;;;5.08;100.00;101222.13;10192878;28;20544;-71
2022/02/05 15:06:26;;;;;;;9.95;1.80;;;;;;;5.04;100.00;101226.50;10164206;28;20078;-71
2022/02/05 15:11:26;;;;;;;14.70;1.90;;;;;;;5.12;100.00;101223.22;10158330;28;20107;-71
2022/02/05 15:16:23;;;;;;;13.18;2.17;;;;;;;5.03;100.00;101231.06;10180408;28;20065;-71
2022/02/05 15:21:20;;;;;;;12.15;2.95;;;;;;;5.08;100.00;101216.72;10172770;28;20085;-70
2022/02/05 15:26:18;;;;;;;9.50;2.03;;;;;;;5.07;100.00;101215.09;10166266;28;20141;-71
2022/02/05 15:31:16;;;;;;;8.65;1.98;;;;;;;5.05;100.00;101211.84;10190869;28;20073;-71
2022/02/05 15:36:22;;;;;;;12.88;1.92;;;;;;;5.05;100.00;101201.00;10171945;28;20046;-71
2022/02/05 15:46:34;;;;;;;11.35;1.85;;;;;;;4.99;100.00;101200.19;10179237;28;20516;-70
2022/02/05 15:51:34;;;;;;;10.75;2.03;;;;;;;4.95;100.00;101203.72;10189739;28;20060;-71
2022/02/05 16:01:27;;;;;;;12.60;1.80;;;;;;;4.91;100.00;101197.19;10152630;28;20174;-71
2022/02/05 16:06:24;;;;;;;8.82;1.80;;;;;;;4.90;100.00;101176.56;10153655;28;20125;-71
2022/02/05 16:11:20;;;;;;;12.40;2.78;;;;;;;4.90;100.00;101171.16;10166111;28;20050;-71
2022/02/05 16:16:18;;;;;;;8.60;1.90;;;;;;;4.85;100.00;101170.09;10161319;28;20113;-71
2022/02/05 16:21:15;;;;;;;14.02;2.30;;;;;;;4.91;100.00;101151.13;10160033;28;20042;-71
2022/02/05 16:26:11;;;;;;;11.95;3.42;;;;;;;4.90;100.00;101161.16;10168851;28;20080;-71
2022/02/05 16:31:08;;;;;;;14.20;2.83;;;;;;;4.82;100.00;101158.97;10189629;28;20068;-71
2022/02/05 16:36:10;;;;;;;9.65;2.00;;;;;;;4.79;100.00;101154.09;10158884;28;20046;-71
2022/02/05 16:41:06;;;;;;;11.43;1.92;;;;;;;4.76;100.00;101136.47;10165385;28;20527;-71
2022/02/05 16:46:03;;;;;;;13.50;2.70;;;;;;;4.73;100.00;101136.19;10180239;28;20058;-71
2022/02/05 16:51:01;;;;;;;19.02;2.22;;;;;;;4.79;100.00;101127.81;10193241;28;20080;-70
2022/02/05 16:55:58;;;;;;;10.68;1.85;;;;;;;4.78;100.00;101120.78;10184229;28;20076;-71
2022/02/05 17:00:54;;;;;;;12.38;2.60;;;;;;;4.79;100.00;101122.38;10157782;28;20528;-71
2022/02/05 17:05:51;;;;;;;10.50;2.47;;;;;;;4.80;100.00;101102.34;10161381;28;20050;-71
2022/02/05 17:10:48;;;;;;;14.10;2.50;;;;;;;4.80;100.00;101102.34;10157127;28;20051;-71
2022/02/05 17:15:44;;;;;;;19.42;3.25;;;;;;;4.73;100.00;101107.19;10172934;28;20461;-70
2022/02/05 17:20:58;;;;;;;6.30;2.05;;;;;;;4.75;100.00;101104.22;10184123;28;20070;-71
2022/02/05 17:25:56;;;;;;;9.30;2.55;;;;;;;4.76;100.00;101090.41;10169789;28;20081;-71
2022/02/05 17:30:53;;;;;;;11.50;2.40;;;;;;;4.72;100.00;101078.50;10156082;28;20470;-71
2022/02/05 17:35:57;;;;;;;7.30;1.85;;;;;;;4.71;100.00;101082.28;10178170;28;20076;-71
2022/02/05 17:40:55;;;;;;;11.75;2.15;;;;;;;4.73;100.00;101061.13;10184630;28;20090;-70
2022/02/05 17:45:53;;;;;;;11.30;2.05;;;;;;;4.77;100.00;101059.53;10154982;28;20046;-71
2022/02/05 17:50:49;;;;;;;14.57;2.25;;;;;;;4.78;100.00;101065.75;10154471;28;20050;-71
2022/02/05 17:55:46;;;;;;;12.75;2.08;;;;;;;4.77;100.00;101039.75;10165334;28;20099;-71
2022/02/05 18:00:43;;;;;;;17.17;1.80;;;;;;;4.76;100.00;101047.06;10179874;28;20074;-70
2022/02/05 18:05:51;;;;;;;13.25;2.13;;;;;;;4.78;100.00;101039.50;10155403;28;20077;-71
2022/02/05 18:11:18;;;;;;;16.50;2.80;;;;;;;4.82;100.00;101024.31;10148443;28;20126;-71
2022/02/05 18:16:05;;;;;;;10.05;2.03;;;;;;;4.85;100.00;101018.34;10170078;28;20049;-71
2022/02/05 18:21:02;;;;;;;11.25;2.17;;;;;;;4.82;100.00;101013.47;10154158;28;20121;-71
2022/02/05 18:25:58;;;;;;;9.57;2.10;;;;;;;4.80;100.00;101020.25;10165702;28;20087;-71
2022/02/05 18:30:55;;;;;;;14.57;2.55;;;;;;;4.83;100.00;100976.38;10191196;28;20159;-72
2022/02/05 18:35:51;;;;;;;9.40;2.25;;;;;;;4.87;100.00;100987.47;10181552;28;20492;-71
2022/02/05 18:40:50;;;;;;;8.27;2.05;;;;;;;4.82;100.00;100980.94;10190540;28;20436;-71
2022/02/05 18:45:47;;;;;;;6.38;1.92;;;;;;;4.84;100.00;100967.94;10147903;28;20039;-71
2022/02/05 18:50:44;;;;;;;13.05;2.83;;;;;;;4.89;100.00;100958.19;10150265;28;20146;-71
2022/02/05 18:55:41;;;;;;;13.32;3.35;;;;;;;4.95;100.00;100947.06;10151384;28;20096;-71
2022/02/05 19:00:54;;;;;;;10.52;2.58;;;;;;;4.92;100.00;100930.53;10151927;28;20038;-71
2022/02/05 19:18:07;;;;;;;11.23;2.58;;;;;;;4.98;100.00;100907.78;10167406;28;20492;-71
2022/02/05 19:21:28;;;;;;;11.10;3.85;;;;;;;4.92;100.00;100892.59;10166763;28;20104;-70
2022/02/05 19:26:25;;;;;;;14.18;2.67;;;;;;;4.90;100.00;100889.34;10166221;28;20050;-71
2022/02/05 19:31:21;;;;;;;12.77;3.03;;;;;;;4.81;100.00;100881.81;10189073;28;20076;-71
2022/02/05 19:36:18;;;;;;;11.70;4.47;;;;;;;4.75;100.00;100885.59;10182040;28;20137;-71
2022/02/05 19:41:26;;;;;;;17.80;3.17;;;;;;;4.64;100.00;100884.00;10193742;28;20100;-71
2022/02/05 19:46:44;;;;;;;9.98;3.20;;;;;;;4.56;100.00;100873.75;10182619;28;20041;-71
2022/02/05 19:51:40;;;;;;;14.57;4.30;;;;;;;4.46;100.00;100877.28;10163817;28;20145;-71
2022/02/05 19:56:40;;;;;;;14.13;5.07;;;;;;;4.36;100.00;100864.56;10176195;28;20072;-71
2022/02/05 20:01:38;;;;;;;14.38;5.22;;;;;;;4.29;100.00;100853.19;10165442;28;20458;-71
2022/02/05 20:06:44;;;;;;;12.05;5.18;;;;;;;4.21;100.00;100837.50;10163968;28;20210;-71
2022/02/05 20:11:41;;;;;;;14.65;6.22;;;;;;;4.21;100.00;100837.50;10171838;28;20553;-72
2022/02/05 20:16:37;;;;;;;11.77;6.00;;;;;;;4.21;100.00;100824.78;10186947;28;20576;-71
2022/02/05 20:21:40;;;;;;;11.75;6.18;;;;;;;4.18;100.00;100824.53;10168046;28;20749;-72
2022/02/05 20:26:37;;;;;;;18.25;7.05;;;;;;;4.23;100.00;100821.81;10155133;28;20133;-72
2022/02/05 20:31:33;;;;;;;19.85;7.70;;;;;;;4.23;100.00;100811.00;10154689;28;20132;-71
2022/02/05 20:36:30;;;;;;;13.20;6.43;;;;;;;4.17;100.00;100817.47;10179526;28;20042;-71
2022/02/05 20:41:27;;;;;;;13.45;7.13;;;;;;;4.20;100.00;100800.69;10156719;28;20491;-71
2022/02/05 20:46:23;;;;;;;13.68;7.43;;;;;;;4.17;100.00;100793.13;10157818;28;20558;-71
2022/02/05 20:51:20;;;;;;;17.70;7.82;;;;;;;4.18;100.00;100813.72;10153654;28;20171;-72
2022/02/05 20:56:26;;;;;;;15.20;8.13;;;;;;;4.15;100.00;100789.88;10163910;28;20161;-72
2022/02/05 21:01:23;;;;;;;17.08;7.75;;;;;;;4.15;100.00;100779.06;10153788;28;20084;-71
2022/02/05 21:06:19;;;;;;;19.38;9.38;;;;;;;4.04;100.00;100758.50;10151785;28;20157;-71
2022/02/05 21:11:16;;;;;;;21.30;9.57;;;;;;;4.09;100.00;100753.09;10161340;28;20042;-71
2022/02/05 21:16:13;;;;;;;15.13;8.30;;;;;;;4.11;100.00;100749.03;10170097;28;20528;-71
2022/02/05 21:21:10;;;;;;;15.98;8.18;;;;;;;4.06;100.00;100730.13;10156959;28;20125;-71
2022/02/05 21:26:07;;;;;;;16.60;7.90;;;;;;;4.03;100.00;100716.31;10151223;28;20046;-71
2022/02/05 21:31:10;;;;;;;13.00;7.47;;;;;;;4.06;100.00;100707.63;10170438;28;20061;-71
2022/02/05 21:36:08;;;;;;;;;;;;;;;4.04;100.00;100693.56;10171525;28;20042;-71
2022/02/05 21:41:04;;;;;;;13.10;8.50;;;;;;;4.02;100.00;100691.16;10156276;28;20020;-70
2022/02/05 21:46:10;;;;;;;20.55;8.45;;;;;;;3.98;100.00;100722.53;10153817;28;20504;-69
2022/02/05 21:51:12;;;;;;;15.40;8.25;;;;;;;4.00;100.00;100672.47;10160781;28;20574;-70
2022/02/05 21:56:24;;;;;;;14.97;7.10;;;;;;;3.98;100.00;100688.16;10169559;28;20045;-70
2022/02/05 22:01:20;;;;;;;14.70;7.77;;;;;;;3.94;100.00;100665.44;10156208;28;20133;-70
2022/02/05 22:06:17;;;;;;;14.48;7.63;;;;;;;3.97;100.00;100648.69;10170654;28;20050;-70
2022/02/05 22:11:13;;;;;;;16.70;7.65;;;;;;;3.97;100.00;100634.38;10171906;28;20109;-70
2022/02/05 22:16:13;;;;;;;12.68;6.88;;;;;;;3.98;100.00;100642.19;10164204;28;20072;-70
2022/02/05 22:21:09;;;;;;;11.38;5.63;;;;;;;4.00;100.00;100631.09;10150847;28;20038;-70
2022/02/05 22:26:06;;;;;;;9.73;6.13;;;;;;;4.04;100.00;100612.41;10151148;28;20544;-70
2022/02/05 22:31:03;;;;;;;13.40;6.65;;;;;;;4.05;100.00;100600.50;10151216;28;20042;-69
2022/02/05 22:35:59;;;;;;;12.63;6.47;;;;;;;4.06;100.00;100632.72;10150270;28;20062;-69
2022/02/05 22:40:57;;;;;;;14.55;7.43;;;;;;;4.12;100.00;100593.69;10150367;28;20046;-70
2022/02/05 22:45:53;;;;;;;12.68;5.65;;;;;;;4.09;100.00;100582.63;10149773;28;20183;-70
2022/02/05 22:50:50;;;;;;;12.48;5.82;;;;;;;4.11;100.00;100580.47;10148482;28;20092;-70
2022/02/05 22:55:46;;;;;;;11.48;5.65;;;;;;;4.17;100.00;100576.63;10149773;28;20481;-70
2022/02/05 23:00:58;;;;;;;14.48;6.30;;;;;;;4.23;100.00;100578.22;10151503;28;20507;-70
2022/02/05 23:05:55;;;;;;;13.88;7.68;;;;;;;4.25;100.00;100543.59;10149058;28;20072;-70
2022/02/05 23:47:35;;;;;;;10.98;6.82;;;;;;;4.58;100.00;100458.06;10153714;28;20101;-70
2022/02/05 23:52:31;;;;;;;12.02;6.40;;;;;;;4.60;100.00;100457.78;10154321;28;20672;-70
2022/02/05 23:57:30;;;;;;;9.45;5.88;;;;;;;4.60;100.00;100442.34;10153774;28;20527;-70
